createdAt,value
2022-11-07T00:00:16.650Z,111.95
2022-11-07T00:10:26.289Z,128.48
2022-11-07T00:20:28.143Z,94.95
2022-11-07T00:30:29.865Z,97.40
2022-11-07T00:40:57.079Z,107.47
2022-11-07T00:51:25.454Z,117.07
2022-11-07T01:01:32.941Z,100.50
2022-11-07T01:11:39.358Z,79.22
2022-11-07T01:21:45.114Z,77.45
2022-11-07T01:31:47.740Z,71.28
2022-11-07T01:41:49.479Z,69.57
2022-11-07T01:52:19.045Z,64.93
2022-11-07T02:02:27.506Z,77.95
2022-11-07T02:12:29.481Z,70.97
2022-11-07T02:22:52.067Z,76.40
2022-11-07T02:32:57.212Z,78.97
2022-11-07T02:43:00.323Z,75.40
2022-11-07T02:53:02.139Z,76.60
2022-11-07T03:03:04.804Z,71.18
2022-11-07T03:13:06.633Z,70.07
2022-11-07T03:23:10.822Z,67.80
2022-11-07T03:33:14.780Z,58.60
2022-11-07T03:43:17.293Z,61.30
2022-11-07T03:53:25.941Z,50.43
2022-11-07T04:03:28.824Z,46.20
2022-11-07T04:13:49.024Z,49.40
2022-11-07T04:23:53.992Z,45.85
2022-11-07T04:33:55.623Z,44.15
2022-11-07T04:43:59.792Z,57.00
2022-11-07T04:54:02.504Z,50.25
2022-11-07T05:04:13.420Z,49.20
2022-11-07T05:14:15.500Z,50.17
2022-11-07T05:24:19.300Z,61.80
2022-11-07T05:34:20.991Z,53.83
2022-11-07T05:44:23.833Z,50.10
2022-11-07T05:54:28.010Z,57.63
2022-11-07T06:04:29.863Z,55.00
2022-11-07T06:14:34.530Z,61.17
2022-11-07T06:24:37.209Z,57.65
2022-11-07T06:34:50.257Z,54.13
2022-11-07T06:44:52.041Z,57.27
2022-11-07T06:54:56.808Z,50.25
2022-11-07T07:05:03.732Z,46.72
2022-11-07T07:15:07.343Z,48.47
2022-11-07T07:25:12.175Z,47.65
2022-11-07T07:35:14.429Z,50.22
2022-11-07T07:45:25.626Z,44.13
2022-11-07T07:55:27.287Z,49.63
2022-11-07T08:05:30.409Z,54.45
2022-11-07T08:15:33.303Z,53.95
2022-11-07T08:25:37.495Z,58.80
2022-11-07T08:35:42.967Z,61.80
2022-11-07T08:45:48.040Z,50.40
2022-11-07T08:55:50.130Z,48.75
2022-11-07T09:05:51.860Z,40.92
2022-11-07T09:15:58.728Z,44.90
2022-11-07T09:26:03.813Z,40.60
2022-11-07T09:36:06.089Z,29.90
2022-11-07T09:46:10.786Z,23.87
2022-11-07T09:56:13.404Z,58.17
2022-11-07T10:06:27.245Z,46.67
2022-11-07T10:17:00.515Z,33.13
2022-11-07T10:27:11.543Z,29.42
2022-11-07T10:37:13.375Z,11.32
2022-11-07T10:47:20.855Z,12.57
2022-11-07T10:57:23.703Z,10.10
2022-11-07T11:07:32.904Z,12.48
2022-11-07T11:17:35.596Z,12.82
2022-11-07T11:27:38.865Z,10.40
2022-11-07T11:37:49.362Z,10.02
2022-11-07T11:48:00.530Z,12.32
2022-11-07T11:58:31.332Z,10.93
2022-11-07T12:08:57.822Z,10.63
2022-11-07T12:19:38.724Z,14.75
2022-11-07T12:29:59.874Z,16.25
2022-11-07T12:40:39.358Z,12.07
2022-11-07T12:50:41.989Z,12.35
2022-11-07T13:00:45.029Z,5.80
2022-11-07T13:10:58.415Z,5.40
2022-11-07T13:21:05.096Z,5.65
2022-11-07T13:31:34.725Z,5.45
2022-11-07T13:41:37.955Z,6.40
2022-11-07T13:51:51.677Z,7.20
2022-11-07T14:01:58.875Z,5.72
2022-11-07T14:12:23.609Z,10.38
2022-11-07T14:22:31.594Z,8.25
2022-11-07T14:32:36.786Z,6.82
2022-11-07T14:42:38.838Z,5.72
2022-11-07T14:53:08.778Z,4.90
2022-11-07T15:13:54.168Z,7.05
2022-11-07T15:24:25.166Z,10.43
2022-11-07T15:34:52.497Z,10.48
2022-11-07T15:46:51.582Z,7.03
2022-11-07T15:57:05.552Z,6.78
2022-11-07T16:07:19.945Z,11.65
2022-11-07T16:17:22.577Z,6.05
2022-11-07T16:27:24.299Z,5.37
2022-11-07T16:37:26.031Z,8.15
2022-11-07T16:47:30.481Z,5.95
2022-11-07T16:57:37.226Z,7.50
2022-11-07T17:07:40.947Z,12.02
2022-11-07T17:17:44.163Z,14.00
2022-11-07T17:27:46.664Z,11.13
2022-11-07T17:37:51.132Z,18.60
2022-11-07T17:47:58.685Z,16.88
2022-11-07T17:58:02.576Z,16.77
2022-11-07T18:08:04.836Z,18.98
2022-11-07T18:18:10.901Z,16.00
2022-11-07T18:28:13.532Z,32.17
2022-11-07T18:38:17.444Z,17.77
2022-11-07T18:48:19.714Z,24.10
2022-11-07T18:58:24.888Z,24.75
2022-11-07T19:08:31.396Z,26.80
2022-11-07T19:18:46.554Z,30.05
2022-11-07T19:29:01.464Z,32.17
2022-11-07T19:39:05.588Z,36.67
2022-11-07T19:49:07.747Z,35.92
2022-11-07T19:59:11.405Z,32.60
2022-11-07T20:09:14.167Z,33.83
2022-11-07T20:19:22.125Z,39.58
2022-11-07T20:29:28.777Z,39.15
2022-11-07T20:39:31.894Z,46.80
2022-11-07T20:49:34.330Z,44.25
2022-11-07T20:59:36.506Z,46.60
2022-11-07T21:09:38.520Z,39.78
2022-11-07T21:19:41.076Z,42.60
2022-11-07T21:29:57.075Z,46.22
2022-11-07T21:39:59.822Z,52.03
2022-11-07T21:50:09.469Z,49.27
2022-11-07T22:00:25.759Z,57.30
2022-11-07T22:10:29.638Z,58.78
2022-11-07T22:20:32.470Z,58.35
2022-11-07T22:30:34.061Z,58.27
2022-11-07T22:40:35.759Z,69.65
2022-11-07T22:50:37.679Z,74.10
2022-11-07T23:00:39.406Z,77.70
2022-11-07T23:10:41.821Z,83.63
2022-11-07T23:21:09.962Z,93.00
2022-11-07T23:31:18.321Z,86.20
2022-11-07T23:41:22.201Z,97.55
2022-11-07T23:51:31.826Z,120.65
